createdAt,value
2018-09-10T00:00:15.713Z,3.27
2018-09-10T00:02:45.214Z,2.50
2018-09-10T00:05:14.142Z,3.70
2018-09-10T00:07:43.251Z,3.93
2018-09-10T00:10:13.758Z,2.00
2018-09-10T00:12:43.815Z,4.13
2018-09-10T00:15:12.975Z,2.87
2018-09-10T00:17:42.256Z,2.30
2018-09-10T00:20:11.248Z,4.20
2018-09-10T00:22:40.333Z,2.40
2018-09-10T00:25:09.674Z,2.93
2018-09-10T00:27:38.689Z,5.47
2018-09-10T00:30:07.813Z,3.33
2018-09-10T00:32:36.968Z,5.47
2018-09-10T00:35:06.904Z,3.67
2018-09-10T00:37:35.857Z,2.97
2018-09-10T00:40:04.862Z,3.10
2018-09-10T00:42:34.802Z,3.33
2018-09-10T00:45:03.889Z,2.53
2018-09-10T00:47:33.134Z,2.83
2018-09-10T00:50:02.201Z,2.53
2018-09-10T00:52:31.213Z,3.23
2018-09-10T00:55:02.246Z,2.10
2018-09-10T00:57:31.242Z,3.10
2018-09-10T01:00:00.592Z,3.43
2018-09-10T01:02:30.563Z,4.90
2018-09-10T01:04:59.488Z,4.17
2018-09-10T01:07:28.755Z,4.47
2018-09-10T01:09:57.710Z,3.70
2018-09-10T01:12:26.711Z,5.77
2018-09-10T01:14:56.031Z,2.43
2018-09-10T01:17:26.140Z,4.53
2018-09-10T01:19:56.046Z,4.03
2018-09-10T01:22:25.200Z,3.40
2018-09-10T01:24:54.106Z,3.27
2018-09-10T01:27:23.088Z,2.67
2018-09-10T01:29:52.028Z,3.67
2018-09-10T01:32:21.150Z,3.00
2018-09-10T01:34:55.771Z,3.90
2018-09-10T01:37:24.749Z,3.07
2018-09-10T01:39:53.736Z,3.30
2018-09-10T01:42:22.705Z,4.40
2018-09-10T01:44:51.699Z,5.20
2018-09-10T01:47:21.658Z,3.33
2018-09-10T01:49:51.654Z,3.90
2018-09-10T01:52:20.799Z,3.67
2018-09-10T01:54:49.751Z,3.40
2018-09-10T01:57:18.760Z,4.93
2018-09-10T01:59:47.753Z,5.03
2018-09-10T02:02:16.912Z,4.53
2018-09-10T02:04:45.885Z,3.10
2018-09-10T02:07:15.825Z,3.50
2018-09-10T02:09:44.824Z,4.00
2018-09-10T02:12:19.130Z,4.37
2018-09-10T02:14:48.359Z,4.90
2018-09-10T02:17:17.896Z,3.40
2018-09-10T02:19:46.889Z,4.37
2018-09-10T02:22:16.200Z,4.00
2018-09-10T02:24:45.119Z,5.43
2018-09-10T02:27:15.052Z,4.27
2018-09-10T02:29:44.055Z,4.83
2018-09-10T02:32:13.024Z,2.87
2018-09-10T02:34:42.000Z,2.90
2018-09-10T02:37:10.981Z,3.57
2018-09-10T02:39:40.905Z,3.17
2018-09-10T02:42:11.890Z,4.33
2018-09-10T02:44:40.859Z,5.60
2018-09-10T02:47:10.301Z,4.83
2018-09-10T02:49:39.279Z,6.63
2018-09-10T02:52:08.246Z,5.43
2018-09-10T02:54:37.394Z,3.73
2018-09-10T02:57:06.522Z,4.00
2018-09-10T02:59:36.712Z,5.03
2018-09-10T03:02:05.693Z,6.07
2018-09-10T03:04:38.308Z,4.47
2018-09-10T03:07:08.259Z,5.37
2018-09-10T03:09:38.209Z,4.57
2018-09-10T03:12:07.448Z,5.30
2018-09-10T03:14:36.451Z,4.50
2018-09-10T03:17:05.476Z,4.03
2018-09-10T03:19:34.564Z,2.90
2018-09-10T03:22:03.568Z,5.57
2018-09-10T03:24:33.563Z,6.07
2018-09-10T03:27:03.609Z,4.40
2018-09-10T03:29:32.548Z,8.20
2018-09-10T03:32:01.779Z,5.27
2018-09-10T03:34:31.750Z,3.60
2018-09-10T03:37:01.720Z,2.93
2018-09-10T03:39:30.956Z,3.50
2018-09-10T03:42:00.983Z,4.53
2018-09-10T03:44:29.883Z,6.70
2018-09-10T03:47:00.870Z,6.43
2018-09-10T03:49:29.884Z,5.60
2018-09-10T03:51:58.806Z,6.43
2018-09-10T03:54:28.803Z,4.90
2018-09-10T03:56:57.944Z,6.47
2018-09-10T03:59:26.923Z,6.57
2018-09-10T04:01:56.929Z,7.37
2018-09-10T04:04:25.800Z,4.80
2018-09-10T04:06:54.744Z,6.07
2018-09-10T04:09:24.706Z,5.07
2018-09-10T04:11:54.139Z,4.87
2018-09-10T04:14:23.035Z,4.53
2018-09-10T04:16:52.036Z,6.40
2018-09-10T04:19:21.977Z,6.53
2018-09-10T04:21:51.118Z,6.07
2018-09-10T04:24:21.060Z,5.57
2018-09-10T04:26:50.097Z,6.00
2018-09-10T04:29:19.409Z,6.27
2018-09-10T04:31:49.712Z,4.87
2018-09-10T04:34:18.641Z,5.90
2018-09-10T04:36:47.561Z,4.73
2018-09-10T04:39:16.551Z,4.73
2018-09-10T04:41:46.508Z,5.53
2018-09-10T04:44:15.496Z,5.57
2018-09-10T04:46:44.482Z,6.50
2018-09-10T04:49:13.463Z,5.53
2018-09-10T04:51:42.452Z,6.13
2018-09-10T04:54:11.545Z,8.00
2018-09-10T04:56:41.446Z,7.53
2018-09-10T04:59:10.357Z,8.17
2018-09-10T05:01:39.379Z,6.83
2018-09-10T05:04:09.388Z,8.17
2018-09-10T05:06:38.335Z,8.10
2018-09-10T05:09:08.949Z,5.97
2018-09-10T05:11:38.068Z,6.47
2018-09-10T05:14:07.139Z,8.07
2018-09-10T05:16:36.104Z,8.47
2018-09-10T05:19:06.077Z,7.40
2018-09-10T05:21:35.109Z,9.00
2018-09-10T05:24:05.118Z,8.27
2018-09-10T05:26:34.141Z,11.80
2018-09-10T05:29:04.121Z,13.67
2018-09-10T05:31:33.103Z,7.27
2018-09-10T05:34:03.013Z,12.37
2018-09-10T05:36:32.012Z,8.80
2018-09-10T05:39:00.983Z,10.23
2018-09-10T05:41:30.999Z,9.07
2018-09-10T05:43:59.908Z,12.07
2018-09-10T05:46:28.959Z,11.87
2018-09-10T05:48:57.910Z,8.63
2018-09-10T05:51:27.257Z,13.10
2018-09-10T05:53:56.202Z,11.47
2018-09-10T05:56:25.257Z,11.40
2018-09-10T05:58:55.622Z,15.53
2018-09-10T06:01:24.605Z,13.10
2018-09-10T06:03:53.620Z,15.37
2018-09-10T06:06:22.595Z,20.33
2018-09-10T06:08:52.549Z,22.57
2018-09-10T06:11:21.483Z,17.93
2018-09-10T06:13:50.549Z,19.77
2018-09-10T06:16:19.504Z,17.33
2018-09-10T06:18:48.585Z,21.13
2018-09-10T06:21:17.580Z,25.60
2018-09-10T06:23:46.568Z,19.57
2018-09-10T06:26:15.551Z,24.43
2018-09-10T06:28:44.622Z,14.90
2018-09-10T06:31:13.541Z,19.53
2018-09-10T06:33:42.552Z,19.83
2018-09-10T06:36:11.675Z,19.27
2018-09-10T06:38:40.826Z,21.80
2018-09-10T06:41:10.755Z,21.10
2018-09-10T06:43:39.760Z,20.23
2018-09-10T06:46:08.969Z,24.80
2018-09-10T06:48:37.950Z,19.47
2018-09-10T06:51:07.726Z,17.73
2018-09-10T06:53:36.792Z,19.43
2018-09-10T06:56:06.787Z,13.90
2018-09-10T06:58:36.372Z,17.77
2018-09-10T07:01:05.459Z,19.13
2018-09-10T07:03:34.685Z,12.70
2018-09-10T07:06:03.646Z,12.90
2018-09-10T07:08:32.671Z,12.27
2018-09-10T07:11:01.658Z,17.70
2018-09-10T07:13:30.642Z,13.63
2018-09-10T07:15:59.651Z,16.00
2018-09-10T07:18:28.625Z,17.70
2018-09-10T07:20:58.554Z,20.80
2018-09-10T07:23:27.645Z,31.60
2018-09-10T07:25:56.647Z,22.97
2018-09-10T07:28:25.705Z,23.63
2018-09-10T07:30:55.661Z,21.17
2018-09-10T07:33:24.598Z,24.03
2018-09-10T07:35:54.536Z,22.43
2018-09-10T07:38:25.578Z,33.33
2018-09-10T07:40:54.637Z,26.40
2018-09-10T07:43:23.667Z,27.87
2018-09-10T07:45:52.572Z,25.10
2018-09-10T07:48:22.562Z,24.30
2018-09-10T07:50:52.539Z,27.10
2018-09-10T07:53:21.492Z,27.47
2018-09-10T07:55:50.541Z,25.57
2018-09-10T07:58:19.446Z,23.40
2018-09-10T08:00:48.400Z,20.80
2018-09-10T08:03:19.226Z,28.63
2018-09-10T08:05:48.207Z,22.00
2018-09-10T08:08:17.207Z,29.57
2018-09-10T08:10:46.242Z,23.60
2018-09-10T08:13:15.289Z,24.30
2018-09-10T08:15:44.309Z,26.93
2018-09-10T08:18:14.321Z,24.20
2018-09-10T08:20:43.282Z,23.47
2018-09-10T08:23:12.295Z,21.27
2018-09-10T08:25:42.360Z,22.57
2018-09-10T08:28:12.410Z,19.30
2018-09-10T08:30:41.447Z,23.30
2018-09-10T08:33:10.422Z,26.47
2018-09-10T08:35:40.477Z,29.77
2018-09-10T08:38:09.418Z,26.90
2018-09-10T08:40:38.504Z,25.33
2018-09-10T08:43:07.667Z,26.27
2018-09-10T08:45:36.606Z,23.27
2018-09-10T08:48:05.718Z,25.00
2018-09-10T08:50:34.748Z,22.43
2018-09-10T08:53:03.673Z,21.93
2018-09-10T08:55:33.405Z,19.27
2018-09-10T08:58:02.298Z,18.67
2018-09-10T09:00:31.311Z,22.53
2018-09-10T09:03:00.248Z,21.33
2018-09-10T09:05:29.248Z,18.07
2018-09-10T09:07:59.333Z,23.43
2018-09-10T09:10:28.276Z,16.90
2018-09-10T09:12:57.294Z,21.33
2018-09-10T09:15:26.817Z,24.73
2018-09-10T09:17:55.813Z,22.23
2018-09-10T09:20:24.777Z,17.70
2018-09-10T09:22:53.766Z,15.97
2018-09-10T09:25:24.802Z,24.47
2018-09-10T09:27:55.725Z,16.33
2018-09-10T09:30:24.766Z,20.30
2018-09-10T09:32:53.755Z,17.10
2018-09-10T09:37:30.363Z,18.17
2018-09-10T09:40:05.864Z,17.23
2018-09-10T09:42:40.196Z,19.40
2018-09-10T09:45:14.401Z,15.60
2018-09-10T09:47:43.341Z,10.37
2018-09-10T09:50:14.357Z,12.97
2018-09-10T09:52:43.343Z,18.03
2018-09-10T09:55:12.280Z,9.37
2018-09-10T09:57:41.160Z,12.07
2018-09-10T10:00:16.712Z,12.40
2018-09-10T10:02:51.942Z,11.80
2018-09-10T10:05:22.048Z,7.63
2018-09-10T10:07:51.040Z,12.97
2018-09-10T10:10:21.750Z,14.23
2018-09-10T10:12:52.095Z,12.33
2018-09-10T10:15:21.609Z,8.87
2018-09-10T10:17:50.559Z,13.23
2018-09-10T10:20:19.521Z,9.33
2018-09-10T10:22:48.704Z,10.57
2018-09-10T10:25:18.620Z,9.00
2018-09-10T10:27:47.538Z,10.97
2018-09-10T10:30:16.498Z,12.87
2018-09-10T10:32:45.419Z,9.83
2018-09-10T10:35:15.425Z,8.60
2018-09-10T10:37:44.560Z,6.37
2018-09-10T10:40:13.541Z,7.87
2018-09-10T10:42:42.531Z,5.03
2018-09-10T10:45:11.580Z,8.17
2018-09-10T10:47:40.476Z,5.27
2018-09-10T10:50:10.604Z,5.90
2018-09-10T10:52:40.702Z,6.20
2018-09-10T10:55:09.670Z,5.37
2018-09-10T10:57:38.610Z,6.77
2018-09-10T11:00:07.722Z,7.27
2018-09-10T11:02:36.705Z,8.80
2018-09-10T11:05:06.233Z,10.80
2018-09-10T11:07:35.253Z,10.43
2018-09-10T11:10:04.482Z,11.47
2018-09-10T11:12:34.456Z,6.23
2018-09-10T11:15:04.399Z,6.47
2018-09-10T11:17:34.362Z,7.40
2018-09-10T11:20:03.343Z,7.90
2018-09-10T11:22:33.293Z,4.50
2018-09-10T11:25:02.256Z,7.17
2018-09-10T11:27:31.345Z,5.47
2018-09-10T11:30:00.231Z,7.73
2018-09-10T11:32:30.178Z,10.77
2018-09-10T11:34:59.178Z,6.37
2018-09-10T11:37:28.135Z,7.53
2018-09-10T11:39:58.219Z,7.53
2018-09-10T11:42:27.204Z,5.83
2018-09-10T11:44:57.189Z,6.83
2018-09-10T11:47:27.115Z,6.43
2018-09-10T11:49:58.092Z,6.83
2018-09-10T11:52:28.079Z,5.50
2018-09-10T11:54:57.088Z,8.87
2018-09-10T11:57:26.295Z,6.30
2018-09-10T11:59:55.343Z,6.50
2018-09-10T12:02:24.426Z,7.47
2018-09-10T12:04:53.791Z,5.60
2018-09-10T12:07:24.392Z,7.03
2018-09-10T12:09:53.926Z,5.77
2018-09-10T12:12:23.388Z,6.27
2018-09-10T12:14:54.168Z,6.47
2018-09-10T12:17:23.782Z,7.73
2018-09-10T12:19:53.529Z,6.57
2018-09-10T12:22:22.938Z,9.17
2018-09-10T12:24:53.099Z,9.63
2018-09-10T12:27:22.651Z,7.93
2018-09-10T12:29:52.447Z,8.07
2018-09-10T12:32:21.793Z,3.07
2018-09-10T12:34:51.312Z,5.13
2018-09-10T12:37:20.622Z,6.87
2018-09-10T12:39:49.890Z,8.17
2018-09-10T12:42:20.160Z,5.87
2018-09-10T12:44:49.602Z,6.70
2018-09-10T12:47:18.651Z,6.23
2018-09-10T12:49:47.632Z,8.30
2018-09-10T12:52:16.586Z,7.27
2018-09-10T12:54:46.587Z,8.30
2018-09-10T12:57:16.505Z,4.77
2018-09-10T12:59:45.701Z,6.80
2018-09-10T13:02:15.641Z,9.50
2018-09-10T13:04:45.597Z,6.20
2018-09-10T13:07:14.806Z,7.10
2018-09-10T13:09:43.717Z,5.77
2018-09-10T13:12:12.663Z,9.70
2018-09-10T13:14:41.645Z,6.40
2018-09-10T13:17:10.648Z,7.20
2018-09-10T13:19:39.701Z,7.67
2018-09-10T13:22:08.755Z,9.27
2018-09-10T13:24:38.802Z,7.93
2018-09-10T13:27:08.801Z,6.50
2018-09-10T13:29:37.846Z,5.30
2018-09-10T13:32:06.854Z,10.30
2018-09-10T13:34:35.944Z,5.73
2018-09-10T13:37:04.961Z,7.23
2018-09-10T13:39:34.937Z,11.13
2018-09-10T13:42:04.838Z,6.73
2018-09-10T13:44:33.827Z,7.93
2018-09-10T13:47:03.794Z,7.43
2018-09-10T13:49:32.747Z,7.30
2018-09-10T13:52:02.752Z,8.63
2018-09-10T13:54:32.736Z,8.10
2018-09-10T13:57:01.690Z,10.43
2018-09-10T13:59:30.665Z,10.13
2018-09-10T14:01:59.705Z,7.67
2018-09-10T14:04:28.618Z,8.03
2018-09-10T14:06:57.539Z,8.77
2018-09-10T14:09:26.556Z,7.37
2018-09-10T14:11:55.600Z,5.83
2018-09-10T14:14:25.535Z,7.13
2018-09-10T14:16:55.604Z,7.27
2018-09-10T14:19:25.572Z,6.63
2018-09-10T14:21:55.211Z,6.47
2018-09-10T14:24:25.450Z,8.37
2018-09-10T14:26:56.142Z,11.50
2018-09-10T14:29:25.501Z,9.03
2018-09-10T14:31:54.578Z,6.13
2018-09-10T14:34:23.564Z,5.13
2018-09-10T14:36:53.791Z,5.97
2018-09-10T14:39:22.767Z,6.40
2018-09-10T14:41:52.786Z,8.43
2018-09-10T14:44:22.690Z,7.07
2018-09-10T14:46:51.672Z,5.30
2018-09-10T14:49:20.721Z,8.50
2018-09-10T14:51:49.895Z,6.63
2018-09-10T14:54:19.893Z,7.33
2018-09-10T14:56:48.864Z,6.90
2018-09-10T14:59:17.907Z,8.47
2018-09-10T15:01:46.898Z,7.70
2018-09-10T15:04:15.860Z,5.63
2018-09-10T15:06:44.877Z,6.57
2018-09-10T15:09:13.864Z,5.57
2018-09-10T15:11:44.857Z,4.83
2018-09-10T15:14:13.814Z,8.00
2018-09-10T15:16:42.754Z,6.47
2018-09-10T15:19:12.810Z,6.17
2018-09-10T15:21:41.732Z,8.27
2018-09-10T15:24:10.763Z,6.97
2018-09-10T15:26:40.845Z,7.37
2018-09-10T15:29:09.864Z,5.63
2018-09-10T15:31:39.762Z,8.13
2018-09-10T15:34:08.748Z,6.83
2018-09-10T15:36:37.654Z,6.83
2018-09-10T15:39:08.373Z,7.03
2018-09-10T15:41:37.354Z,8.00
2018-09-10T15:44:06.473Z,9.30
2018-09-10T15:46:35.646Z,4.23
2018-09-10T15:49:05.698Z,4.73
2018-09-10T15:51:34.676Z,8.13
2018-09-10T15:54:04.611Z,7.63
2018-09-10T15:56:34.908Z,4.87
2018-09-10T15:59:03.868Z,8.37
2018-09-10T16:01:32.843Z,5.97
2018-09-10T16:04:01.868Z,10.27
2018-09-10T16:06:30.818Z,7.63
2018-09-10T16:08:59.956Z,7.07
2018-09-10T16:11:29.957Z,8.63
2018-09-10T16:13:58.940Z,7.40
2018-09-10T16:16:28.417Z,7.87
2018-09-10T16:18:58.389Z,7.47
2018-09-10T16:21:27.328Z,7.80
2018-09-10T16:23:56.227Z,6.33
2018-09-10T16:26:25.387Z,7.07
2018-09-10T16:28:55.457Z,8.57
2018-09-10T16:31:24.446Z,4.93
2018-09-10T16:33:54.444Z,7.80
2018-09-10T16:36:23.405Z,6.00
2018-09-10T16:38:53.540Z,4.63
2018-09-10T16:41:22.521Z,9.27
2018-09-10T16:43:51.765Z,6.03
2018-09-10T16:46:21.043Z,5.97
2018-09-10T16:48:51.165Z,6.77
2018-09-10T16:51:21.611Z,8.57
2018-09-10T16:53:50.887Z,6.57
2018-09-10T16:56:19.914Z,7.17
2018-09-10T16:58:48.923Z,6.13
2018-09-10T17:01:18.984Z,8.30
2018-09-10T17:03:48.006Z,6.97
2018-09-10T17:06:17.028Z,7.87
2018-09-10T17:08:46.124Z,6.43
2018-09-10T17:11:16.027Z,6.27
2018-09-10T17:13:45.966Z,6.10
2018-09-10T17:16:15.205Z,7.73
2018-09-10T17:18:44.106Z,11.10
2018-09-10T17:21:14.047Z,10.43
2018-09-10T17:23:44.107Z,8.60
2018-09-10T17:26:13.374Z,6.53
2018-09-10T17:28:42.791Z,7.10
2018-09-10T17:31:12.955Z,9.57
2018-09-10T17:33:42.112Z,9.97
2018-09-10T17:36:11.225Z,10.50
2018-09-10T17:38:40.565Z,7.43
2018-09-10T17:41:10.531Z,8.37
2018-09-10T17:43:40.617Z,6.90
2018-09-10T17:46:09.691Z,6.27
2018-09-10T17:48:38.636Z,7.40
2018-09-10T17:51:07.681Z,6.60
2018-09-10T17:53:36.701Z,8.20
2018-09-10T17:56:05.769Z,10.20
2018-09-10T17:58:36.796Z,7.80
2018-09-10T18:01:08.782Z,9.33
2018-09-10T18:03:38.716Z,5.63
2018-09-10T18:06:08.606Z,5.73
2018-09-10T18:08:38.541Z,6.80
2018-09-10T18:11:07.571Z,10.23
2018-09-10T18:13:36.557Z,6.87
2018-09-10T18:16:05.560Z,6.27
2018-09-10T18:18:34.537Z,8.57
2018-09-10T18:21:03.562Z,13.27
2018-09-10T18:23:32.628Z,8.27
2018-09-10T18:26:01.772Z,7.20
2018-09-10T18:28:31.766Z,9.47
2018-09-10T18:31:00.993Z,8.60
2018-09-10T18:33:30.021Z,8.30
2018-09-10T18:35:58.985Z,7.13
2018-09-10T18:38:28.146Z,9.00
2018-09-10T18:40:57.227Z,6.00
2018-09-10T18:43:26.163Z,7.80
2018-09-10T18:45:56.102Z,10.07
2018-09-10T18:48:26.029Z,6.67
2018-09-10T18:50:56.097Z,7.40
2018-09-10T18:53:26.136Z,6.57
2018-09-10T18:55:56.671Z,8.67
2018-09-10T18:58:26.242Z,6.97
2018-09-10T19:00:55.796Z,8.60
2018-09-10T19:03:25.804Z,14.20
2018-09-10T19:05:54.797Z,9.63
2018-09-10T19:08:23.929Z,9.37
2018-09-10T19:10:52.922Z,6.47
2018-09-10T19:13:21.986Z,8.73
2018-09-10T19:15:51.432Z,6.07
2018-09-10T19:18:20.465Z,9.87
2018-09-10T19:20:49.427Z,5.80
2018-09-10T19:23:18.405Z,7.33
2018-09-10T19:25:47.391Z,7.27
2018-09-10T19:28:17.698Z,6.87
2018-09-10T19:30:47.781Z,8.73
2018-09-10T19:33:17.841Z,9.07
2018-09-10T19:35:46.903Z,5.07
2018-09-10T19:38:15.972Z,9.80
2018-09-10T19:40:44.940Z,10.30
2018-09-10T19:43:15.007Z,9.17
2018-09-10T19:45:43.978Z,7.83
2018-09-10T19:48:14.304Z,6.03
2018-09-10T19:50:43.559Z,6.93
2018-09-10T19:53:12.447Z,9.90
2018-09-10T19:55:41.678Z,8.57
2018-09-10T19:58:10.647Z,8.87
2018-09-10T20:00:39.628Z,6.47
2018-09-10T20:03:09.433Z,9.40
2018-09-10T20:05:38.470Z,11.23
2018-09-10T20:08:07.443Z,11.10
2018-09-10T20:10:36.437Z,12.27
2018-09-10T20:13:05.421Z,8.53
2018-09-10T20:15:34.381Z,9.57
2018-09-10T20:18:04.411Z,7.07
2018-09-10T20:20:34.325Z,9.30
2018-09-10T20:23:03.401Z,7.50
2018-09-10T20:25:32.349Z,8.03
2018-09-10T20:28:02.354Z,8.30
2018-09-10T20:30:32.568Z,9.20
2018-09-10T20:33:02.520Z,8.23
2018-09-10T20:35:31.520Z,11.37
2018-09-10T20:38:00.462Z,9.93
2018-09-10T20:40:29.437Z,7.67
2018-09-10T20:42:58.569Z,10.50
2018-09-10T20:45:28.611Z,11.37
2018-09-10T20:47:57.558Z,8.37
2018-09-10T20:50:26.600Z,8.30
2018-09-10T20:52:55.660Z,7.37
2018-09-10T20:55:25.576Z,8.83
2018-09-10T20:57:54.570Z,9.73
2018-09-10T21:00:23.572Z,8.73
2018-09-10T21:02:52.553Z,7.10
2018-09-10T21:05:21.515Z,8.17
2018-09-10T21:07:50.820Z,8.63
2018-09-10T21:10:21.763Z,9.83
2018-09-10T21:12:50.911Z,9.63
2018-09-10T21:15:20.078Z,11.10
2018-09-10T21:17:49.063Z,7.97
2018-09-10T21:20:18.060Z,6.80
2018-09-10T21:22:47.283Z,8.03
2018-09-10T21:25:16.351Z,10.93
2018-09-10T21:27:45.506Z,13.97
2018-09-10T21:30:14.470Z,13.03
2018-09-10T21:32:43.437Z,10.63
2018-09-10T21:35:12.391Z,12.73
2018-09-10T21:37:42.718Z,10.73
2018-09-10T21:40:11.618Z,12.53
2018-09-10T21:42:40.575Z,10.13
2018-09-10T21:45:09.645Z,10.83
2018-09-10T21:47:38.603Z,12.90
2018-09-10T21:50:07.603Z,9.93
2018-09-10T21:52:36.601Z,11.13
2018-09-10T21:55:06.502Z,12.83
2018-09-10T21:57:36.505Z,10.40
2018-09-10T22:00:06.329Z,8.43
2018-09-10T22:02:36.378Z,9.17
2018-09-10T22:05:05.412Z,13.27
2018-09-10T22:07:34.351Z,8.90
2018-09-10T22:10:04.274Z,9.70
2018-09-10T22:12:33.253Z,10.97
2018-09-10T22:15:02.301Z,10.43
2018-09-10T22:17:31.256Z,11.07
2018-09-10T22:20:00.223Z,11.10
2018-09-10T22:22:29.174Z,12.47
2018-09-10T22:24:59.109Z,10.73
2018-09-10T22:27:28.061Z,11.43
2018-09-10T22:29:57.075Z,10.07
2018-09-10T22:32:26.069Z,10.70
2018-09-10T22:34:56.023Z,12.40
2018-09-10T22:37:25.031Z,10.97
2018-09-10T22:39:54.029Z,9.20
2018-09-10T22:42:22.997Z,11.23
2018-09-10T22:44:52.913Z,11.63
2018-09-10T22:47:21.945Z,12.30
2018-09-10T22:49:51.044Z,10.90
2018-09-10T22:52:19.999Z,16.10
2018-09-10T22:54:49.969Z,14.03
2018-09-10T22:57:18.959Z,9.03
2018-09-10T22:59:48.972Z,12.03
2018-09-10T23:02:18.024Z,8.13
2018-09-10T23:04:47.953Z,12.27
2018-09-10T23:07:17.893Z,11.30
2018-09-10T23:09:47.097Z,9.43
2018-09-10T23:12:16.938Z,11.30
2018-09-10T23:14:46.354Z,10.73
2018-09-10T23:17:15.265Z,8.10
2018-09-10T23:19:44.653Z,8.90
2018-09-10T23:22:14.045Z,10.07
2018-09-10T23:24:43.772Z,14.13
2018-09-10T23:27:14.290Z,10.83
2018-09-10T23:29:43.667Z,10.67
2018-09-10T23:32:13.306Z,10.73
2018-09-10T23:34:42.291Z,9.37
2018-09-10T23:37:11.209Z,10.20
2018-09-10T23:39:41.906Z,9.57
2018-09-10T23:42:11.811Z,12.17
2018-09-10T23:44:40.757Z,10.73
2018-09-10T23:47:09.766Z,13.33
2018-09-10T23:49:38.731Z,12.00
2018-09-10T23:52:07.777Z,13.10
2018-09-10T23:54:36.697Z,10.90
2018-09-10T23:57:05.639Z,14.07
2018-09-10T23:59:34.606Z,10.70
